createdAt,value
2022-11-14T00:01:07.194Z,8.63
2022-11-14T00:03:33.723Z,9.02
2022-11-14T00:06:00.293Z,8.80
2022-11-14T00:08:29.481Z,8.60
2022-11-14T00:10:56.448Z,8.82
2022-11-14T00:13:22.948Z,9.02
2022-11-14T00:15:58.459Z,8.88
2022-11-14T00:18:27.905Z,8.02
2022-11-14T00:20:54.635Z,8.33
2022-11-14T00:23:21.924Z,8.63
2022-11-14T00:25:49.174Z,8.52
2022-11-14T00:28:16.131Z,7.97
2022-11-14T00:30:52.003Z,8.65
2022-11-14T00:33:20.718Z,8.40
2022-11-14T00:35:52.392Z,8.57
2022-11-14T00:38:18.889Z,8.65
2022-11-14T00:40:45.694Z,8.30
2022-11-14T00:43:14.382Z,7.43
2022-11-14T00:45:44.305Z,7.88
2022-11-14T00:48:14.171Z,7.33
2022-11-14T00:50:41.465Z,7.50
2022-11-14T00:53:08.039Z,7.55
2022-11-14T00:55:36.788Z,7.83
2022-11-14T00:58:03.768Z,7.53
2022-11-14T01:00:30.329Z,7.45
2022-11-14T01:02:58.293Z,7.28
2022-11-14T01:05:25.769Z,7.95
2022-11-14T01:07:52.615Z,8.23
2022-11-14T01:10:19.894Z,8.07
2022-11-14T01:12:46.903Z,7.65
2022-11-14T01:15:16.003Z,7.37
2022-11-14T01:17:42.570Z,7.63
2022-11-14T01:20:09.190Z,7.73
2022-11-14T01:22:35.698Z,7.78
2022-11-14T01:25:02.235Z,8.17
2022-11-14T01:27:31.511Z,7.80
2022-11-14T01:30:00.269Z,8.03
2022-11-14T01:32:27.620Z,8.17
2022-11-14T01:34:54.461Z,7.73
2022-11-14T01:37:20.990Z,8.10
2022-11-14T01:39:47.476Z,7.80
2022-11-14T01:42:14.005Z,8.20
2022-11-14T01:44:52.407Z,8.07
2022-11-14T01:47:26.244Z,7.40
2022-11-14T01:50:02.062Z,7.53
2022-11-14T01:52:35.114Z,7.73
2022-11-14T01:55:07.152Z,8.27
2022-11-14T01:57:44.138Z,7.33
2022-11-14T02:00:12.332Z,8.47
2022-11-14T02:02:40.134Z,7.73
2022-11-14T02:05:10.478Z,8.03
2022-11-14T02:07:40.322Z,8.77
2022-11-14T02:10:10.883Z,8.90
2022-11-14T02:12:38.270Z,8.40
2022-11-14T02:15:05.202Z,8.27
2022-11-14T02:17:32.813Z,9.50
2022-11-14T02:20:08.239Z,8.60
2022-11-14T02:22:34.768Z,8.53
2022-11-14T02:25:01.670Z,8.87
2022-11-14T02:27:29.199Z,8.73
2022-11-14T02:30:04.310Z,8.47
2022-11-14T02:32:45.046Z,8.77
2022-11-14T02:35:17.386Z,8.93
2022-11-14T02:37:43.895Z,9.37
2022-11-14T02:40:11.126Z,8.17
2022-11-14T02:42:37.890Z,9.17
2022-11-14T02:45:05.288Z,7.97
2022-11-14T02:47:34.107Z,8.80
2022-11-14T02:50:02.958Z,9.40
2022-11-14T02:52:29.487Z,9.17
2022-11-14T02:54:56.007Z,8.60
2022-11-14T02:57:27.134Z,9.13
2022-11-14T02:59:53.629Z,9.27
2022-11-14T03:02:20.143Z,8.37
2022-11-14T03:04:46.711Z,8.43
2022-11-14T03:07:13.325Z,8.00
2022-11-14T03:09:39.937Z,9.07
2022-11-14T03:12:06.543Z,8.73
2022-11-14T03:14:33.059Z,9.43
2022-11-14T03:17:02.026Z,8.60
2022-11-14T03:19:28.526Z,8.80
2022-11-14T03:21:55.009Z,8.53
2022-11-14T03:24:24.073Z,9.03
2022-11-14T03:26:50.571Z,9.00
2022-11-14T03:29:17.109Z,9.00
2022-11-14T03:31:43.678Z,9.43
2022-11-14T03:34:12.914Z,9.57
2022-11-14T03:36:39.458Z,10.03
2022-11-14T03:39:09.238Z,9.90
2022-11-14T03:41:36.008Z,10.80
2022-11-14T03:44:02.545Z,9.73
2022-11-14T03:46:31.603Z,10.37
2022-11-14T03:48:58.071Z,9.50
2022-11-14T03:51:24.562Z,10.33
2022-11-14T03:53:51.071Z,9.90
2022-11-14T03:56:17.600Z,10.47
2022-11-14T03:58:46.659Z,11.23
2022-11-14T04:01:13.391Z,10.33
2022-11-14T04:03:39.907Z,10.93
2022-11-14T04:06:06.490Z,10.97
2022-11-14T04:08:35.800Z,10.50
2022-11-14T04:11:04.826Z,10.93
2022-11-14T04:13:33.647Z,10.73
2022-11-14T04:16:02.464Z,11.40
2022-11-14T04:18:29.453Z,10.97
2022-11-14T04:20:56.351Z,11.77
2022-11-14T04:23:23.247Z,11.33
2022-11-14T04:25:49.738Z,11.13
2022-11-14T04:28:16.304Z,11.73
2022-11-14T04:30:42.839Z,11.97
2022-11-14T04:33:09.370Z,11.10
2022-11-14T04:35:35.874Z,11.03
2022-11-14T04:38:07.262Z,11.13
2022-11-14T04:40:33.824Z,12.63
2022-11-14T04:43:00.322Z,12.00
2022-11-14T04:45:26.936Z,11.63
2022-11-14T04:47:53.549Z,11.57
2022-11-14T04:50:20.423Z,12.23
2022-11-14T04:52:49.159Z,12.17
2022-11-14T04:55:15.668Z,11.67
2022-11-14T04:57:42.178Z,11.57
2022-11-14T05:00:09.486Z,11.60
2022-11-14T05:02:35.963Z,11.67
2022-11-14T05:05:02.511Z,11.70
2022-11-14T05:07:31.739Z,12.33
2022-11-14T05:10:00.580Z,11.90
2022-11-14T05:12:27.125Z,11.73
2022-11-14T05:14:53.625Z,11.90
2022-11-14T05:17:20.125Z,13.07
2022-11-14T05:19:46.640Z,13.17
2022-11-14T05:22:15.468Z,12.43
2022-11-14T05:24:42.042Z,12.23
2022-11-14T05:27:08.519Z,12.83
2022-11-14T05:29:37.493Z,12.17
2022-11-14T05:32:04.195Z,12.83
2022-11-14T05:34:30.728Z,14.20
2022-11-14T05:36:59.696Z,13.20
2022-11-14T05:39:26.183Z,13.23
2022-11-14T05:41:52.652Z,13.97
2022-11-14T05:44:21.538Z,13.07
2022-11-14T05:46:48.071Z,12.70
2022-11-14T05:49:19.212Z,12.70
2022-11-14T05:51:50.498Z,12.40
2022-11-14T05:54:17.012Z,13.97
2022-11-14T05:56:46.070Z,14.00
2022-11-14T05:59:12.550Z,11.83
2022-11-14T06:01:41.727Z,13.40
2022-11-14T06:04:08.277Z,13.67
2022-11-14T06:06:37.043Z,13.47
2022-11-14T06:09:03.600Z,13.17
2022-11-14T06:11:30.068Z,12.73
2022-11-14T06:13:56.626Z,13.30
2022-11-14T06:16:23.301Z,12.57
2022-11-14T06:18:53.189Z,13.47
2022-11-14T06:21:21.731Z,13.43
2022-11-14T06:23:48.871Z,13.27
2022-11-14T06:26:22.897Z,12.60
2022-11-14T06:28:50.792Z,13.00
2022-11-14T06:31:18.792Z,12.33
2022-11-14T06:33:45.883Z,12.67
2022-11-14T06:36:13.068Z,12.93
2022-11-14T06:38:41.144Z,13.00
2022-11-14T06:41:10.364Z,12.57
2022-11-14T06:43:41.633Z,12.97
2022-11-14T06:46:10.559Z,13.00
2022-11-14T06:48:37.446Z,12.00
2022-11-14T06:51:05.292Z,12.60
2022-11-14T06:53:34.447Z,12.43
2022-11-14T06:56:06.969Z,12.67
2022-11-14T06:58:36.133Z,14.20
2022-11-14T07:01:08.839Z,16.20
2022-11-14T07:03:35.365Z,15.37
2022-11-14T07:06:02.797Z,14.20
2022-11-14T07:08:29.784Z,15.67
2022-11-14T07:11:07.698Z,16.77
2022-11-14T07:13:35.138Z,15.27
2022-11-14T07:16:02.615Z,14.27
2022-11-14T07:18:33.933Z,13.57
2022-11-14T07:21:03.999Z,12.40
2022-11-14T07:23:34.763Z,13.17
2022-11-14T07:26:07.128Z,12.87
2022-11-14T07:28:39.670Z,11.90
2022-11-14T07:31:07.912Z,11.93
2022-11-14T07:33:35.077Z,11.77
2022-11-14T07:36:01.972Z,12.50
2022-11-14T07:38:30.639Z,11.90
2022-11-14T07:41:04.352Z,11.90
2022-11-14T07:43:31.297Z,11.63
2022-11-14T07:46:02.569Z,12.13
2022-11-14T07:48:32.421Z,13.07
2022-11-14T07:51:03.454Z,14.90
2022-11-14T07:53:30.578Z,16.30
2022-11-14T07:56:02.380Z,16.30
2022-11-14T07:58:29.371Z,17.03
2022-11-14T08:00:56.302Z,14.07
2022-11-14T08:03:22.868Z,13.73
2022-11-14T08:05:49.388Z,12.50
2022-11-14T08:08:15.872Z,12.40
2022-11-14T08:10:42.494Z,12.80
2022-11-14T08:13:30.905Z,14.33
2022-11-14T08:15:57.745Z,12.63
2022-11-14T08:18:24.309Z,13.00
2022-11-14T08:20:50.876Z,12.17
2022-11-14T08:23:17.378Z,13.07
2022-11-14T08:25:46.257Z,12.57
2022-11-14T08:28:12.750Z,12.43
2022-11-14T08:30:39.330Z,12.63
2022-11-14T08:33:07.046Z,11.17
2022-11-14T08:35:33.818Z,12.23
2022-11-14T08:38:03.486Z,12.17
2022-11-14T08:40:30.562Z,11.37
2022-11-14T08:43:03.497Z,11.87
2022-11-14T08:45:30.581Z,11.57
2022-11-14T08:47:57.168Z,10.33
2022-11-14T08:50:23.966Z,11.60
2022-11-14T08:52:53.079Z,11.33
2022-11-14T08:55:20.808Z,11.80
2022-11-14T08:57:53.073Z,11.90
2022-11-14T09:00:19.952Z,11.87
2022-11-14T09:02:47.095Z,11.23
2022-11-14T09:05:17.082Z,11.00
2022-11-14T09:07:43.586Z,11.17
2022-11-14T09:10:10.325Z,10.95
2022-11-14T09:12:39.223Z,10.57
2022-11-14T09:15:06.659Z,11.13
2022-11-14T09:17:33.213Z,11.73
2022-11-14T09:19:59.802Z,10.50
2022-11-14T09:22:26.347Z,10.52
2022-11-14T09:24:53.024Z,9.25
2022-11-14T09:27:21.829Z,10.32
2022-11-14T09:29:48.409Z,9.57
2022-11-14T09:32:14.914Z,10.18
2022-11-14T09:34:45.633Z,9.07
2022-11-14T09:37:12.195Z,8.75
2022-11-14T09:39:40.669Z,10.38
2022-11-14T09:42:40.537Z,10.77
2022-11-14T09:45:18.538Z,10.18
2022-11-14T09:47:53.015Z,10.38
2022-11-14T09:50:32.927Z,10.13
2022-11-14T09:53:05.567Z,9.32
2022-11-14T09:55:37.084Z,9.70
2022-11-14T09:58:05.201Z,9.98
2022-11-14T10:01:03.758Z,9.38
2022-11-14T10:03:54.527Z,10.13
2022-11-14T10:06:35.531Z,10.93
2022-11-14T10:09:49.835Z,10.38
2022-11-14T10:12:38.305Z,10.30
2022-11-14T10:15:31.081Z,9.30
2022-11-14T10:18:12.191Z,10.15
2022-11-14T10:20:46.277Z,9.35
2022-11-14T10:23:25.232Z,9.35
2022-11-14T10:26:16.548Z,10.10
2022-11-14T10:29:06.101Z,10.52
2022-11-14T10:32:11.258Z,11.60
2022-11-14T10:35:02.468Z,11.52
2022-11-14T10:37:37.847Z,11.73
2022-11-14T10:40:24.300Z,12.48
2022-11-14T10:43:00.722Z,12.80
2022-11-14T10:45:34.729Z,12.10
2022-11-14T10:48:13.163Z,11.77
2022-11-14T10:50:52.784Z,12.15
2022-11-14T10:53:31.568Z,12.05
2022-11-14T10:56:04.186Z,11.73
2022-11-14T10:58:42.029Z,10.90
2022-11-14T11:01:43.715Z,12.18
2022-11-14T11:04:27.673Z,12.20
2022-11-14T11:07:00.549Z,12.35
2022-11-14T11:09:47.449Z,17.02
2022-11-14T11:12:19.970Z,22.08
2022-11-14T11:14:48.442Z,20.40
2022-11-14T11:17:18.465Z,18.48
2022-11-14T11:19:47.340Z,14.60
2022-11-14T11:22:46.829Z,14.48
2022-11-14T11:25:28.175Z,12.80
2022-11-14T11:28:12.680Z,13.80
2022-11-14T11:30:39.670Z,14.15
2022-11-14T11:33:21.408Z,14.57
2022-11-14T11:35:50.730Z,13.50
2022-11-14T11:38:20.240Z,13.27
2022-11-14T11:40:51.369Z,12.88
2022-11-14T11:43:53.907Z,12.98
2022-11-14T11:46:46.850Z,14.57
2022-11-14T11:49:34.049Z,14.45
2022-11-14T11:52:39.835Z,15.00
2022-11-14T11:55:22.149Z,15.35
2022-11-14T11:58:03.426Z,14.93
2022-11-14T12:00:31.991Z,15.70
2022-11-14T12:03:04.168Z,13.95
2022-11-14T12:05:38.185Z,15.52
2022-11-14T12:08:15.998Z,15.25
2022-11-14T12:12:24.057Z,16.42
2022-11-14T12:14:07.898Z,18.05
2022-11-14T12:16:59.751Z,19.63
2022-11-14T12:19:55.119Z,18.83
2022-11-14T12:22:53.556Z,21.23
2022-11-14T12:25:38.883Z,20.15
2022-11-14T12:28:24.104Z,21.45
2022-11-14T12:30:58.662Z,20.48
2022-11-14T12:33:40.683Z,21.20
2022-11-14T12:36:14.464Z,22.15
2022-11-14T12:38:54.638Z,20.98
2022-11-14T12:41:30.985Z,21.38
2022-11-14T12:44:32.474Z,20.13
2022-11-14T12:47:19.070Z,20.55
2022-11-14T12:49:54.717Z,18.92
2022-11-14T12:52:56.011Z,19.67
2022-11-14T12:55:26.855Z,23.05
2022-11-14T12:58:19.744Z,20.20
2022-11-14T13:00:47.003Z,20.52
2022-11-14T13:03:17.422Z,18.95
2022-11-14T13:06:05.283Z,18.75
2022-11-14T13:09:07.974Z,18.60
2022-11-14T13:12:06.161Z,18.50
2022-11-14T13:15:08.511Z,18.05
2022-11-14T13:18:15.547Z,17.70
2022-11-14T13:21:01.347Z,18.02
2022-11-14T13:23:28.231Z,18.17
2022-11-14T13:26:21.482Z,17.90
2022-11-14T13:28:52.501Z,18.10
2022-11-14T13:31:26.504Z,18.45
2022-11-14T13:34:00.908Z,17.10
2022-11-14T13:36:59.064Z,16.95
2022-11-14T13:39:51.852Z,18.52
2022-11-14T13:42:54.871Z,17.75
2022-11-14T13:45:31.647Z,17.55
2022-11-14T13:48:23.554Z,17.60
2022-11-14T13:50:55.889Z,17.88
2022-11-14T13:53:27.590Z,16.58
2022-11-14T13:56:05.218Z,17.45
2022-11-14T13:59:05.148Z,17.70
2022-11-14T14:02:02.377Z,17.20
2022-11-14T14:04:38.688Z,18.05
2022-11-14T14:07:30.105Z,18.02
2022-11-14T14:10:24.284Z,21.95
2022-11-14T14:13:15.053Z,17.55
2022-11-14T14:16:07.705Z,18.10
2022-11-14T14:18:45.388Z,18.00
2022-11-14T14:21:31.801Z,18.23
2022-11-14T14:24:18.958Z,18.27
2022-11-14T14:26:56.761Z,18.13
2022-11-14T14:29:30.824Z,18.13
2022-11-14T14:32:11.403Z,18.27
2022-11-14T14:34:39.602Z,19.27
2022-11-14T14:37:25.677Z,18.20
2022-11-14T14:40:02.815Z,17.58
2022-11-14T14:42:41.090Z,18.52
2022-11-14T14:45:20.017Z,18.63
2022-11-14T14:47:58.665Z,18.25
2022-11-14T14:50:31.320Z,19.17
2022-11-14T14:53:02.515Z,19.02
2022-11-14T14:55:37.511Z,18.90
2022-11-14T14:58:36.237Z,18.15
2022-11-14T15:01:34.144Z,19.27
2022-11-14T15:04:11.868Z,21.70
2022-11-14T15:06:39.694Z,23.20
2022-11-14T15:09:20.847Z,21.95
2022-11-14T15:11:51.052Z,20.35
2022-11-14T15:14:24.766Z,21.70
2022-11-14T15:16:55.741Z,21.40
2022-11-14T15:19:31.760Z,21.23
2022-11-14T15:22:05.302Z,20.73
2022-11-14T15:24:32.119Z,20.45
2022-11-14T15:26:58.726Z,20.73
2022-11-14T15:29:28.313Z,21.80
2022-11-14T15:32:01.046Z,21.75
2022-11-14T15:34:35.783Z,22.95
2022-11-14T15:37:14.393Z,22.98
2022-11-14T15:39:41.343Z,22.17
2022-11-14T15:42:28.165Z,23.33
2022-11-14T15:44:56.999Z,21.45
2022-11-14T15:47:39.021Z,21.33
2022-11-14T15:50:25.564Z,21.73
2022-11-14T15:53:23.215Z,20.13
2022-11-14T15:55:50.418Z,20.88
2022-11-14T15:58:33.058Z,20.27
2022-11-14T16:01:04.539Z,20.10
2022-11-14T16:03:31.568Z,19.08
2022-11-14T16:05:58.350Z,19.52
2022-11-14T16:08:24.995Z,19.63
2022-11-14T16:10:51.704Z,18.90
2022-11-14T16:13:18.242Z,18.42
2022-11-14T16:15:47.310Z,17.48
2022-11-14T16:18:14.408Z,16.40
2022-11-14T16:20:41.785Z,16.10
2022-11-14T16:23:13.729Z,15.52
2022-11-14T16:25:40.429Z,16.27
2022-11-14T16:28:06.976Z,15.43
2022-11-14T16:30:34.357Z,17.10
2022-11-14T16:33:01.075Z,16.83
2022-11-14T16:35:28.161Z,17.23
2022-11-14T16:37:55.506Z,15.70
2022-11-14T16:40:27.905Z,14.95
2022-11-14T16:42:56.173Z,15.15
2022-11-14T16:45:23.740Z,14.95
2022-11-14T16:47:50.695Z,15.07
2022-11-14T16:50:18.903Z,15.35
2022-11-14T16:52:48.550Z,15.35
2022-11-14T16:55:15.147Z,17.50
2022-11-14T16:57:41.840Z,15.30
2022-11-14T17:00:12.362Z,15.55
2022-11-14T17:02:45.624Z,15.93
2022-11-14T17:05:14.480Z,17.23
2022-11-14T17:07:41.020Z,16.75
2022-11-14T17:10:08.002Z,17.52
2022-11-14T17:12:34.605Z,17.10
2022-11-14T17:15:01.175Z,17.00
2022-11-14T17:17:30.773Z,15.43
2022-11-14T17:19:57.409Z,13.65
2022-11-14T17:22:24.592Z,13.77
2022-11-14T17:24:53.618Z,14.02
2022-11-14T17:27:20.203Z,13.30
2022-11-14T17:29:46.827Z,11.50
2022-11-14T17:32:13.355Z,11.27
2022-11-14T17:34:39.913Z,11.52
2022-11-14T17:37:06.429Z,10.90
2022-11-14T17:39:35.094Z,10.30
2022-11-14T17:42:01.735Z,10.73
2022-11-14T17:44:28.232Z,11.38
2022-11-14T17:46:55.931Z,10.95
2022-11-14T17:49:25.497Z,11.43
2022-11-14T17:51:52.084Z,10.88
2022-11-14T17:54:18.668Z,10.43
2022-11-14T17:56:49.685Z,10.10
2022-11-14T17:59:20.433Z,10.23
2022-11-14T18:01:47.518Z,10.18
2022-11-14T18:04:14.046Z,10.10
2022-11-14T18:06:42.792Z,9.93
2022-11-14T18:09:14.034Z,8.75
2022-11-14T18:11:41.214Z,9.45
2022-11-14T18:14:07.923Z,9.15
2022-11-14T18:17:05.523Z,9.63
2022-11-14T18:19:23.274Z,9.25
2022-11-14T18:21:53.914Z,9.25
2022-11-14T18:24:21.661Z,9.40
2022-11-14T18:26:48.303Z,8.77
2022-11-14T18:29:18.014Z,8.98
2022-11-14T18:31:44.576Z,9.43
2022-11-14T18:34:11.142Z,9.52
2022-11-14T18:36:37.671Z,10.07
2022-11-14T18:39:04.298Z,9.95
2022-11-14T18:41:30.884Z,9.98
2022-11-14T18:44:02.439Z,10.35
2022-11-14T18:46:34.395Z,10.02
2022-11-14T18:49:03.646Z,10.00
2022-11-14T18:51:30.890Z,10.77
2022-11-14T18:53:59.296Z,10.48
2022-11-14T18:56:28.499Z,9.50
2022-11-14T18:58:58.741Z,9.32
2022-11-14T19:01:29.274Z,9.95
2022-11-14T19:04:01.297Z,9.80
2022-11-14T19:06:29.678Z,9.50
2022-11-14T19:09:02.741Z,9.07
2022-11-14T19:11:49.689Z,9.52
2022-11-14T19:14:16.911Z,8.73
2022-11-14T19:16:47.113Z,9.40
2022-11-14T19:19:13.944Z,8.82
2022-11-14T19:21:41.392Z,9.40
2022-11-14T19:24:10.749Z,9.38
2022-11-14T19:26:37.426Z,9.20
2022-11-14T19:29:10.460Z,9.18
2022-11-14T19:31:39.093Z,8.68
2022-11-14T19:34:06.250Z,8.93
2022-11-14T19:36:58.219Z,9.20
2022-11-14T19:39:21.826Z,9.32
2022-11-14T19:41:48.474Z,8.52
2022-11-14T19:44:17.348Z,8.90
2022-11-14T19:46:47.554Z,9.98
2022-11-14T19:49:14.476Z,9.90
2022-11-14T19:51:41.022Z,9.07
2022-11-14T19:54:11.140Z,9.57
2022-11-14T19:56:38.158Z,8.77
2022-11-14T19:59:09.554Z,9.70
2022-11-14T20:01:42.160Z,9.40
2022-11-14T20:04:12.204Z,9.80
2022-11-14T20:06:38.876Z,10.55
2022-11-14T20:09:10.685Z,10.55
2022-11-14T20:11:37.395Z,10.07
2022-11-14T20:14:05.636Z,10.48
2022-11-14T20:16:34.509Z,10.95
2022-11-14T20:19:01.680Z,10.13
2022-11-14T20:21:32.029Z,11.40
2022-11-14T20:23:59.304Z,11.48
2022-11-14T20:26:26.183Z,11.20
2022-11-14T20:28:53.999Z,10.82
2022-11-14T20:31:30.767Z,11.15
2022-11-14T20:33:57.378Z,10.75
2022-11-14T20:36:26.092Z,10.40
2022-11-14T20:38:53.828Z,9.88
2022-11-14T20:41:21.370Z,11.48
2022-11-14T20:43:48.218Z,10.95
2022-11-14T20:46:20.148Z,11.23
2022-11-14T20:48:49.373Z,11.95
2022-11-14T20:51:22.074Z,11.65
2022-11-14T20:53:50.669Z,11.77
2022-11-14T20:56:17.977Z,11.88
2022-11-14T20:58:46.590Z,11.75
2022-11-14T21:01:14.533Z,12.02
2022-11-14T21:03:43.761Z,11.68
2022-11-14T21:06:12.927Z,11.98
2022-11-14T21:08:40.140Z,11.75
2022-11-14T21:11:11.096Z,12.02
2022-11-14T21:13:59.045Z,12.00
2022-11-14T21:16:34.620Z,11.90
2022-11-14T21:19:04.697Z,12.05
2022-11-14T21:21:34.574Z,12.38
2022-11-14T21:24:01.096Z,12.10
2022-11-14T21:26:33.212Z,12.00
2022-11-14T21:29:02.139Z,12.18
2022-11-14T21:31:33.969Z,11.98
2022-11-14T21:34:05.982Z,11.05
2022-11-14T21:36:48.193Z,12.35
2022-11-14T21:39:16.370Z,12.23
2022-11-14T21:41:44.484Z,12.73
2022-11-14T21:44:13.553Z,12.18
2022-11-14T21:46:48.537Z,12.30
2022-11-14T21:49:15.155Z,11.65
2022-11-14T21:51:41.717Z,13.02
2022-11-14T21:54:09.389Z,13.15
2022-11-14T21:56:37.295Z,12.82
2022-11-14T21:59:15.594Z,12.15
2022-11-14T22:02:03.682Z,12.85
2022-11-14T22:04:31.502Z,12.45
2022-11-14T22:06:59.137Z,12.68
2022-11-14T22:09:29.069Z,12.30
2022-11-14T22:11:56.399Z,13.43
2022-11-14T22:14:23.249Z,12.27
2022-11-14T22:16:50.128Z,11.75
2022-11-14T22:19:16.704Z,13.00
2022-11-14T22:21:43.255Z,13.05
2022-11-14T22:24:09.769Z,12.60
2022-11-14T22:26:39.848Z,13.75
2022-11-14T22:29:07.915Z,13.48
2022-11-14T22:31:34.731Z,13.38
2022-11-14T22:34:03.530Z,13.90
2022-11-14T22:36:30.016Z,13.15
2022-11-14T22:39:01.419Z,13.45
2022-11-14T22:41:32.597Z,14.70
2022-11-14T22:44:00.193Z,13.50
2022-11-14T22:46:27.604Z,13.70
2022-11-14T22:48:54.822Z,14.02
2022-11-14T22:51:30.440Z,13.85
2022-11-14T22:53:58.024Z,14.48
2022-11-14T22:56:29.023Z,14.32
2022-11-14T22:58:56.327Z,13.05
2022-11-14T23:01:31.479Z,14.57
2022-11-14T23:04:00.575Z,14.73
2022-11-14T23:06:28.344Z,14.15
2022-11-14T23:08:55.192Z,13.60
2022-11-14T23:11:25.929Z,14.98
2022-11-14T23:13:55.192Z,13.75
2022-11-14T23:16:26.993Z,14.75
2022-11-14T23:18:58.086Z,14.52
2022-11-14T23:21:28.067Z,15.98
2022-11-14T23:24:06.492Z,14.68
2022-11-14T23:26:33.943Z,14.75
2022-11-14T23:29:00.946Z,14.88
2022-11-14T23:31:27.506Z,14.70
2022-11-14T23:33:55.684Z,14.75
2022-11-14T23:36:24.605Z,15.18
2022-11-14T23:38:54.618Z,15.45
2022-11-14T23:41:27.924Z,15.45
2022-11-14T23:43:54.531Z,14.85
2022-11-14T23:46:21.198Z,15.30
2022-11-14T23:48:50.855Z,16.10
2022-11-14T23:51:17.613Z,15.35
2022-11-14T23:53:44.415Z,16.65
2022-11-14T23:56:13.250Z,15.13
2022-11-14T23:58:40.521Z,15.15
